Glenbrook Heights, California
Current Conditions -  °F | °C
As of 1:20 PM on Sunday 23 Nov 2014 (Local Time) from KGOO Reporting Station
Scattered Clouds Scattered Clouds  
Wind Chill: 12°   Ceiling: Unl
Heat Index: 12°   Visibility: 10mi
Dew Point:   Wind: 5mph
Humidity: 47%   Direction: 270°W
Pressure: 30.27"   Gusts: NA
Location:  39.2183°N, 120.924°W
Report Text: KGOO 232120Z AUTO 27004KT 10SM FEW042 SCT120 12/01 A3027 RMK AO1
Loading
Personal Weather Stations






























Interactive Weather Map New forecast layout! Learn more

10-Day Weather Forecast

Advertisements
Track Severe Weather on mobile